Time;durP1;ratioP1;P1;durP2;ratioP2;P2;SDS_P1;SDS_P2;PMS_P1;PMS_P2;Temp;Humidity;BMP_temperature;BMP_pressure;BME280_temperature;BME280_humidity;BME280_pressure;Samples;Min_cycle;Max_cycle;Signal;HPM_P1;HPM_P2
2023/11/05 00:02:10;;;;;;;2.13;0.70;;;;;;;9.44;93.98;96883.38;7388382;19;20819;-61
2023/11/05 00:04:37;;;;;;;1.50;0.85;;;;;;;9.41;93.83;96882.03;7389843;19;20348;-62
2023/11/05 00:07:05;;;;;;;2.03;0.80;;;;;;;9.36;94.02;96877.53;7389787;19;20357;-61
2023/11/05 00:09:32;;;;;;;2.28;0.85;;;;;;;9.32;94.05;96878.31;7390846;19;20712;-61
2023/11/05 00:11:59;;;;;;;2.38;0.90;;;;;;;9.29;94.07;96886.78;7391095;19;20498;-61
2023/11/05 00:14:26;;;;;;;1.95;0.80;;;;;;;9.23;94.07;96877.22;7390309;19;20345;-60
2023/11/05 00:16:53;;;;;;;3.22;0.90;;;;;;;9.20;94.24;96889.09;7389942;19;20373;-62
2023/11/05 00:19:20;;;;;;;1.95;0.80;;;;;;;9.16;94.77;96891.47;7387775;19;20374;-62
2023/11/05 00:21:47;;;;;;;1.50;0.80;;;;;;;9.14;95.01;96893.59;7390260;19;20366;-61
2023/11/05 00:24:17;;;;;;;2.72;0.75;;;;;;;9.14;94.88;96900.75;7389175;19;20436;-61
2023/11/05 00:26:44;;;;;;;1.88;0.80;;;;;;;9.14;95.15;96901.53;7397201;19;20764;-63
2023/11/05 00:29:14;;;;;;;2.70;1.00;;;;;;;9.16;95.42;96898.63;7397550;19;20825;-61
2023/11/05 00:31:42;;;;;;;1.95;0.90;;;;;;;9.19;95.75;96898.09;7395644;19;20384;-62
2023/11/05 00:34:09;;;;;;;2.58;1.00;;;;;;;9.24;95.89;96897.31;7397180;19;20393;-63
2023/11/05 00:36:36;;;;;;;2.25;0.90;;;;;;;9.27;95.54;96892.31;7395417;19;20713;-61
2023/11/05 00:39:03;;;;;;;2.60;0.90;;;;;;;9.30;95.50;96888.34;7394390;19;20480;-63
2023/11/05 00:41:31;;;;;;;2.95;1.00;;;;;;;9.31;95.39;96888.09;7397338;19;20373;-61
2023/11/05 00:43:59;;;;;;;3.43;0.87;;;;;;;9.30;95.44;96891.78;7397198;19;20528;-62
2023/11/05 00:46:26;;;;;;;2.83;0.90;;;;;;;9.28;95.24;96885.97;7396051;19;20374;-62
2023/11/05 00:48:52;;;;;;;2.42;0.90;;;;;;;9.27;95.31;96880.94;7395925;19;20720;-61
2023/11/05 00:51:19;;;;;;;3.22;0.82;;;;;;;9.24;95.37;96878.81;7395246;19;20352;-62
2023/11/05 00:53:46;;;;;;;2.92;1.20;;;;;;;9.22;95.39;96887.00;7396485;19;20361;-62
2023/11/05 00:56:13;;;;;;;3.30;0.90;;;;;;;9.20;95.50;96889.09;7396262;19;20376;-60
2023/11/05 00:58:40;;;;;;;1.93;0.90;;;;;;;9.17;95.67;96884.34;7392542;19;20508;-62
2023/11/05 01:01:07;;;;;;;2.97;1.05;;;;;;;9.17;96.14;96887.78;7393216;19;20352;-62
2023/11/05 01:03:34;;;;;;;4.50;1.40;;;;;;;9.21;96.33;96885.41;7391603;19;20376;-60
2023/11/05 01:06:01;;;;;;;2.38;1.17;;;;;;;9.24;96.32;96879.59;7396153;19;20375;-62
2023/11/05 01:08:28;;;;;;;3.00;1.38;;;;;;;9.30;96.26;96883.06;7395781;19;20885;-62
2023/11/05 01:10:55;;;;;;;2.97;1.70;;;;;;;9.32;96.02;96875.66;7396613;19;20359;-60
2023/11/05 01:13:22;;;;;;;3.95;1.77;;;;;;;9.32;96.13;96876.44;7395722;19;20890;-62
2023/11/05 01:15:48;;;;;;;4.30;1.73;;;;;;;9.35;96.22;96878.59;7395015;19;20378;-60
2023/11/05 01:18:15;;;;;;;6.47;1.60;;;;;;;9.38;96.30;96880.69;7393730;19;20444;-61
2023/11/05 01:20:42;;;;;;;3.10;1.45;;;;;;;9.42;96.40;96883.63;7394308;19;20370;-62
2023/11/05 01:23:09;;;;;;;2.78;1.55;;;;;;;9.47;96.26;96888.91;7395608;19;20373;-62
2023/11/05 01:25:36;;;;;;;3.05;1.60;;;;;;;9.54;96.51;96878.91;7394429;19;20412;-61
2023/11/05 01:28:03;;;;;;;2.50;0.90;;;;;;;9.58;96.31;96879.16;7395069;19;20348;-61
2023/11/05 01:30:29;;;;;;;2.20;1.10;;;;;;;9.63;96.16;96891.59;7393441;19;20833;-62
2023/11/05 01:32:57;;;;;;;2.42;1.00;;;;;;;9.67;96.20;96880.25;7391008;19;20384;-62
2023/11/05 01:35:24;;;;;;;2.53;0.80;;;;;;;9.71;96.00;96878.66;7393612;19;20405;-63
2023/11/05 01:37:51;;;;;;;2.28;0.80;;;;;;;9.74;96.18;96878.13;7390827;19;20400;-62
2023/11/05 01:40:18;;;;;;;2.23;1.00;;;;;;;9.77;95.90;96876.78;7392145;19;20376;-63
2023/11/05 01:42:45;;;;;;;2.75;0.90;;;;;;;9.78;96.15;96868.59;7394607;19;20368;-63
2023/11/05 01:45:11;;;;;;;2.13;0.90;;;;;;;9.80;95.87;96866.47;7388206;19;20933;-62
2023/11/05 01:47:39;;;;;;;3.60;1.30;;;;;;;9.82;96.00;96870.72;7387134;19;20480;-62
2023/11/05 01:50:06;;;;;;;3.40;0.95;;;;;;;9.82;96.21;96870.72;7386375;19;20377;-62
2023/11/05 01:52:34;;;;;;;3.40;0.90;;;;;;;9.84;96.08;96869.41;7390544;19;20984;-62
2023/11/05 01:55:03;;;;;;;2.78;1.15;;;;;;;9.85;96.20;96865.69;7391865;19;20752;-62
2023/11/05 01:57:30;;;;;;;2.08;1.10;;;;;;;9.89;96.35;96863.31;7390166;19;20385;-62
2023/11/05 01:59:57;;;;;;;2.88;1.10;;;;;;;9.90;96.01;96855.13;7392121;19;20340;-61
2023/11/05 02:02:25;;;;;;;7.88;1.25;;;;;;;9.92;96.32;96852.97;7390382;19;20377;-63
2023/11/05 02:04:52;;;;;;;2.63;1.00;;;;;;;9.98;96.04;96851.13;7392805;19;20401;-62
2023/11/05 02:07:19;;;;;;;1.90;0.90;;;;;;;10.02;96.03;96849.53;7390261;19;20386;-61
2023/11/05 02:09:46;;;;;;;3.30;1.35;;;;;;;10.06;95.73;96852.47;7393814;19;20402;-62
2023/11/05 02:12:13;;;;;;;3.20;0.98;;;;;;;10.07;95.39;96838.94;7393269;19;20373;-62
2023/11/05 02:14:39;;;;;;;2.20;1.20;;;;;;;10.10;95.30;96841.06;7392562;19;20362;-61
2023/11/05 02:17:06;;;;;;;1.92;0.98;;;;;;;10.13;95.20;96829.94;7394012;19;20371;-61
2023/11/05 02:19:34;;;;;;;2.22;0.70;;;;;;;10.12;95.00;96820.41;7392607;19;20380;-60
2023/11/05 02:22:11;;;;;;;2.63;0.85;;;;;;;10.14;94.93;96828.09;7392760;19;20373;-61
2023/11/05 02:24:38;;;;;;;2.13;0.77;;;;;;;10.13;94.74;96811.38;7388855;19;20860;-61
2023/11/05 02:27:05;;;;;;;2.83;1.00;;;;;;;10.11;94.97;96816.16;7390568;19;20387;-62
2023/11/05 02:29:32;;;;;;;2.47;0.95;;;;;;;10.12;94.68;96809.81;7391066;19;20513;-61
2023/11/05 02:31:59;;;;;;;2.05;0.75;;;;;;;10.11;94.75;96807.44;7392073;19;20371;-61
2023/11/05 02:34:25;;;;;;;4.82;1.13;;;;;;;10.10;94.72;96797.91;7391381;19;20348;-63
2023/11/05 02:36:52;;;;;;;1.80;0.80;;;;;;;10.08;94.79;96803.47;7392647;19;21016;-61
2023/11/05 02:39:19;;;;;;;2.58;0.93;;;;;;;10.06;94.52;96799.50;7392393;19;20377;-61
2023/11/05 02:41:46;;;;;;;2.92;0.95;;;;;;;10.03;94.57;96800.84;7387487;19;20361;-62
2023/11/05 02:44:13;;;;;;;2.55;0.90;;;;;;;9.99;94.58;96810.38;7385500;19;20373;-62
2023/11/05 02:46:40;;;;;;;1.88;0.88;;;;;;;9.95;94.57;96809.31;7391677;19;20372;-63
2023/11/05 02:49:09;;;;;;;3.30;1.17;;;;;;;9.92;94.67;96801.88;7391115;19;20415;-62
2023/11/05 02:51:35;;;;;;;4.50;1.10;;;;;;;9.90;94.69;96806.66;7392072;19;20398;-61
2023/11/05 02:54:02;;;;;;;3.50;1.15;;;;;;;9.87;94.69;96797.41;7392959;19;20373;-61
2023/11/05 02:56:29;;;;;;;2.92;1.02;;;;;;;9.87;94.74;96793.97;7392382;19;20368;-60
2023/11/05 02:58:56;;;;;;;2.00;0.85;;;;;;;9.86;94.77;96792.34;7392188;19;20377;-62
2023/11/05 03:01:24;;;;;;;4.23;1.03;;;;;;;9.82;94.46;96789.47;7387508;19;20397;-62
2023/11/05 03:03:51;;;;;;;3.63;1.10;;;;;;;9.84;94.44;96786.53;7388905;19;20385;-62
2023/11/05 03:06:18;;;;;;;2.78;0.80;;;;;;;9.80;94.29;96789.72;7391835;19;20382;-62
2023/11/05 03:08:45;;;;;;;3.53;0.90;;;;;;;9.79;94.33;96788.13;7389098;19;20355;-62
2023/11/05 03:11:12;;;;;;;4.95;1.30;;;;;;;9.77;94.23;96792.09;7391205;19;20357;-63
2023/11/05 03:13:39;;;;;;;3.92;1.30;;;;;;;9.73;94.30;96786.56;7390569;19;20352;-62
2023/11/05 03:16:08;;;;;;;4.30;1.13;;;;;;;9.70;94.26;96800.31;7391999;19;20940;-61
2023/11/05 03:18:36;;;;;;;2.92;1.00;;;;;;;9.68;94.12;96789.19;7389907;19;20680;-62
2023/11/05 03:21:02;;;;;;;4.35;1.10;;;;;;;9.65;94.09;96788.91;7389410;19;20367;-61
2023/11/05 03:23:29;;;;;;;3.42;1.50;;;;;;;9.62;94.19;96787.59;7391072;19;20391;-61
2023/11/05 03:25:56;;;;;;;5.35;1.48;;;;;;;9.61;94.09;96787.88;7391971;19;20352;-61
2023/11/05 03:28:23;;;;;;;5.47;1.30;;;;;;;9.58;94.28;96789.19;7388104;19;20357;-62
2023/11/05 03:30:50;;;;;;;4.65;1.40;;;;;;;9.58;93.98;96789.19;7389205;19;20357;-61
2023/11/05 03:33:16;;;;;;;4.15;1.70;;;;;;;9.57;94.22;96787.63;7390689;19;20353;-60
2023/11/05 03:35:43;;;;;;;4.10;1.33;;;;;;;9.56;94.26;96789.47;7391127;19;20852;-62
2023/11/05 03:38:11;;;;;;;4.20;1.00;;;;;;;9.58;94.40;96786.53;7389981;19;20553;-60
2023/11/05 03:40:38;;;;;;;4.00;1.10;;;;;;;9.58;94.24;96783.91;7387726;19;20365;-60
2023/11/05 03:43:05;;;;;;;3.63;1.15;;;;;;;9.59;94.35;96785.50;7388776;19;20721;-62
2023/11/05 03:45:32;;;;;;;4.55;1.27;;;;;;;9.60;94.21;96787.06;7388289;19;20388;-62
2023/11/05 03:47:59;;;;;;;4.22;1.10;;;;;;;9.62;94.40;96776.22;7391248;19;20400;-62
2023/11/05 03:50:26;;;;;;;3.90;1.13;;;;;;;9.63;94.42;96785.75;7389476;19;20329;-61
2023/11/05 03:52:52;;;;;;;3.83;1.15;;;;;;;9.65;94.44;96789.75;7391528;19;20490;-62
2023/11/05 03:55:19;;;;;;;4.60;1.00;;;;;;;9.68;94.41;96783.91;7388902;19;20353;-60
2023/11/05 03:57:46;;;;;;;3.03;1.15;;;;;;;9.72;94.32;96784.97;7387844;19;20391;-63
2023/11/05 04:00:13;;;;;;;4.43;1.13;;;;;;;9.77;94.53;96782.31;7392328;19;20365;-62
2023/11/05 04:02:40;;;;;;;4.90;1.20;;;;;;;9.80;94.37;96776.50;7397113;19;20369;-61
2023/11/05 04:05:07;;;;;;;5.45;1.45;;;;;;;9.89;94.17;96779.41;7398403;19;20902;-60
2023/11/05 04:07:34;;;;;;;4.55;1.20;;;;;;;9.96;93.97;96768.53;7398459;19;20368;-61
2023/11/05 04:10:01;;;;;;;5.90;1.37;;;;;;;10.04;93.92;96775.16;7398115;19;20410;-61
2023/11/05 04:12:27;;;;;;;4.57;1.10;;;;;;;10.11;93.72;96770.34;7396448;19;20349;-61
2023/11/05 04:14:54;;;;;;;4.57;1.17;;;;;;;10.19;93.50;96767.94;7397475;19;20357;-62
2023/11/05 04:17:21;;;;;;;4.45;0.90;;;;;;;10.26;93.13;96772.97;7394622;19;20368;-60
2023/11/05 04:19:48;;;;;;;3.55;1.00;;;;;;;10.32;93.01;96765.84;7395786;19;20899;-61
2023/11/05 04:22:15;;;;;;;5.30;1.27;;;;;;;10.37;92.72;96763.16;7395647;19;20385;-60
2023/11/05 04:24:42;;;;;;;5.05;1.30;;;;;;;10.45;92.59;96767.91;7395816;19;22146;-62
2023/11/05 04:27:08;;;;;;;3.53;0.85;;;;;;;10.51;91.99;96764.16;7395759;19;20379;-62
2023/11/05 04:29:35;;;;;;;3.60;1.25;;;;;;;10.56;91.75;96760.69;7397295;19;20365;-62
2023/11/05 04:32:02;;;;;;;3.50;0.98;;;;;;;10.62;91.53;96759.63;7393771;19;20385;-59
2023/11/05 04:34:32;;;;;;;3.30;1.00;;;;;;;10.67;91.42;96756.16;7395563;19;20906;-62
2023/11/05 04:37:00;;;;;;;5.78;1.17;;;;;;;10.70;90.89;96764.38;7396968;19;20449;-62
2023/11/05 04:39:28;;;;;;;5.40;1.03;;;;;;;10.76;90.67;96752.66;7394064;19;20336;-62
2023/11/05 04:41:55;;;;;;;5.57;1.33;;;;;;;10.81;90.54;96752.63;7395619;19;20462;-62
2023/11/05 04:44:22;;;;;;;4.55;1.40;;;;;;;10.85;90.88;96752.09;7395853;19;20352;-61
2023/11/05 04:46:49;;;;;;;5.20;1.15;;;;;;;10.87;90.82;96742.81;7395282;19;20357;-62
2023/11/05 04:49:15;;;;;;;4.85;1.27;;;;;;;10.89;90.72;96738.03;7393993;19;20348;-60
2023/11/05 04:51:42;;;;;;;5.25;1.30;;;;;;;10.91;90.74;96740.41;7396602;19;20384;-62
2023/11/05 04:54:09;;;;;;;4.53;1.25;;;;;;;10.91;90.74;96740.41;7395599;19;20413;-62
2023/11/05 04:56:36;;;;;;;6.20;1.40;;;;;;;10.88;90.77;96747.06;7396530;19;20865;-61
2023/11/05 04:59:03;;;;;;;4.65;1.42;;;;;;;10.87;90.79;96744.66;7395033;19;20888;-60
2023/11/05 05:01:30;;;;;;;5.32;1.30;;;;;;;10.87;90.80;96753.41;7391682;19;20387;-61
2023/11/05 05:03:56;;;;;;;5.10;1.00;;;;;;;10.84;90.65;96756.63;7393657;19;20364;-59
2023/11/05 05:06:23;;;;;;;4.40;1.20;;;;;;;10.83;90.87;96749.72;7391777;19;20380;-61
2023/11/05 05:08:51;;;;;;;5.80;1.27;;;;;;;10.86;90.81;96738.59;7395473;19;20353;-62
2023/11/05 05:11:17;;;;;;;3.40;0.98;;;;;;;10.85;90.93;96752.88;7394292;19;20434;-62
2023/11/05 05:13:44;;;;;;;5.15;1.38;;;;;;;10.84;90.78;96753.97;7393947;19;20387;-62
2023/11/05 05:16:12;;;;;;;3.50;1.20;;;;;;;10.85;91.04;96738.84;7395927;19;20946;-64
2023/11/05 05:18:40;;;;;;;4.78;1.15;;;;;;;10.82;91.00;96750.81;7394942;19;20363;-64
2023/11/05 05:21:07;;;;;;;3.80;1.20;;;;;;;10.81;91.30;96752.63;7394947;19;20377;-64
2023/11/05 05:23:34;;;;;;;6.93;1.45;;;;;;;10.80;91.39;96744.97;7395404;19;20364;-64
2023/11/05 05:26:02;;;;;;;4.60;1.05;;;;;;;10.79;91.58;96744.16;7396277;19;20368;-64
2023/11/05 05:28:29;;;;;;;5.55;1.42;;;;;;;10.79;91.80;96743.38;7395425;19;20352;-64
2023/11/05 05:30:56;;;;;;;4.03;0.90;;;;;;;10.76;92.05;96738.63;7389702;19;20698;-65
2023/11/05 05:33:23;;;;;;;7.13;1.13;;;;;;;10.74;92.33;96732.81;7396185;19;20335;-64
2023/11/05 05:35:50;;;;;;;6.20;1.40;;;;;;;10.72;92.65;96737.59;7396077;19;20368;-64
2023/11/05 05:38:16;;;;;;;5.50;1.38;;;;;;;10.70;92.51;96729.13;7397438;19;20788;-65
2023/11/05 05:40:44;;;;;;;3.33;0.82;;;;;;;10.71;92.97;96733.34;7394574;19;20388;-64
2023/11/05 05:43:11;;;;;;;5.05;1.13;;;;;;;10.70;92.91;96729.13;7396078;19;20434;-64
2023/11/05 05:45:37;;;;;;;5.22;1.30;;;;;;;10.69;93.25;96730.16;7395206;19;20390;-61
2023/11/05 05:48:08;;;;;;;5.35;1.10;;;;;;;10.69;93.45;96730.16;7392526;19;20377;-63
2023/11/05 05:50:35;;;;;;;4.88;1.20;;;;;;;10.69;93.57;96732.81;7393479;19;20365;-64
2023/11/05 05:53:01;;;;;;;4.45;1.30;;;;;;;10.69;93.63;96732.81;7395703;19;20352;-64
2023/11/05 05:55:28;;;;;;;2.78;1.00;;;;;;;10.68;93.71;96731.25;7394313;19;20535;-63
2023/11/05 05:57:56;;;;;;;6.05;1.60;;;;;;;10.67;93.94;96722.50;7393046;19;20770;-63
2023/11/05 06:00:24;;;;;;;4.63;1.10;;;;;;;10.68;94.19;96710.03;7392449;19;20430;-64
2023/11/05 06:02:50;;;;;;;5.13;1.30;;;;;;;10.69;94.33;96715.06;7391435;19;20377;-64
2023/11/05 06:05:18;;;;;;;3.90;1.17;;;;;;;10.69;94.46;96712.44;7392829;19;20359;-64
2023/11/05 06:07:44;;;;;;;5.65;1.30;;;;;;;10.71;94.44;96709.47;7394921;19;20368;-63
2023/11/05 06:10:12;;;;;;;3.65;1.20;;;;;;;10.71;94.78;96701.53;7396051;19;20369;-63
2023/11/05 06:12:39;;;;;;;5.45;1.20;;;;;;;10.72;94.81;96700.47;7394057;19;20705;-62
2023/11/05 06:15:07;;;;;;;5.00;1.42;;;;;;;10.70;95.10;96703.41;7396349;19;20401;-63
2023/11/05 06:17:39;;;;;;;4.03;1.30;;;;;;;10.72;95.08;96705.78;7393872;19;20864;-62
2023/11/05 06:20:07;;;;;;;4.57;1.03;;;;;;;10.71;95.32;96698.88;7394232;19;20487;-62
2023/11/05 06:22:34;;;;;;;6.95;1.40;;;;;;;10.70;95.23;96703.41;7392580;19;20448;-62
2023/11/05 06:25:05;;;;;;;3.80;1.10;;;;;;;10.68;95.46;96694.94;7394618;19;20361;-61
2023/11/05 06:27:32;;;;;;;5.30;1.27;;;;;;;10.70;95.48;96710.56;7394235;19;20367;-63
2023/11/05 06:30:01;;;;;;;2.85;1.00;;;;;;;10.72;95.86;96700.47;7393495;19;20709;-62
2023/11/05 06:32:27;;;;;;;3.33;1.23;;;;;;;10.72;95.55;96698.63;7381744;19;20349;-62
2023/11/05 06:34:54;;;;;;;3.65;0.90;;;;;;;10.71;95.74;96699.69;7386742;19;20749;-62
2023/11/05 06:37:25;;;;;;;3.75;1.10;;;;;;;10.71;95.75;96698.88;7394278;19;20360;-62
2023/11/05 06:39:52;;;;;;;3.67;1.17;;;;;;;10.72;95.97;96711.09;7393886;19;20380;-62
2023/11/05 06:42:19;;;;;;;10.65;1.60;;;;;;;10.74;95.99;96693.06;7393290;19;20352;-63
2023/11/05 06:44:46;;;;;;;5.30;1.20;;;;;;;10.75;96.07;96699.91;7393740;19;20371;-62
2023/11/05 06:47:13;;;;;;;4.22;1.40;;;;;;;10.75;96.26;96699.91;7392524;19;20372;-63
2023/11/05 06:49:40;;;;;;;4.55;1.40;;;;;;;10.75;96.10;96702.56;7393410;19;20372;-63
2023/11/05 06:52:07;;;;;;;4.97;1.10;;;;;;;10.76;96.29;96701.53;7394763;19;20364;-61
2023/11/05 06:54:34;;;;;;;4.30;1.40;;;;;;;10.80;96.27;96702.56;7391812;19;20356;-62
2023/11/05 06:57:03;;;;;;;3.70;1.00;;;;;;;10.82;96.12;96703.09;7393473;19;20343;-62
2023/11/05 06:59:30;;;;;;;4.07;1.00;;;;;;;10.84;96.16;96708.91;7393682;19;20339;-62
2023/11/05 07:01:57;;;;;;;2.67;0.85;;;;;;;10.87;96.15;96703.03;7391635;19;20463;-62
2023/11/05 07:04:23;;;;;;;4.75;0.98;;;;;;;10.87;96.13;96705.69;7391764;19;20372;-63
2023/11/05 07:06:50;;;;;;;4.07;1.15;;;;;;;10.91;95.90;96703.28;7392155;19;20385;-62
2023/11/05 07:09:17;;;;;;;4.63;0.93;;;;;;;10.92;95.95;96700.38;7392980;19;20395;-62
2023/11/05 07:11:44;;;;;;;4.00;0.90;;;;;;;10.93;96.10;96707.25;7393109;19;20383;-62
2023/11/05 07:14:11;;;;;;;4.28;1.10;;;;;;;10.97;95.82;96705.63;7390602;19;20369;-62
2023/11/05 07:16:38;;;;;;;3.00;0.90;;;;;;;10.99;95.63;96710.66;7389140;19;20714;-62
2023/11/05 07:19:05;;;;;;;5.18;1.40;;;;;;;11.02;95.74;96710.88;7386762;19;20419;-63
2023/11/05 07:21:32;;;;;;;3.95;0.80;;;;;;;11.07;95.72;96702.13;7392129;19;20359;-63
2023/11/05 07:23:58;;;;;;;6.47;1.10;;;;;;;11.14;95.79;96707.13;7390692;19;20369;-63
2023/11/05 07:26:25;;;;;;;7.25;1.00;;;;;;;11.20;95.33;96712.09;7391166;19;20758;-62
2023/11/05 07:28:52;;;;;;;3.80;0.88;;;;;;;11.26;95.19;96712.06;7391217;19;20379;-62
2023/11/05 07:31:21;;;;;;;2.97;0.90;;;;;;;11.31;95.02;96718.13;7389446;19;20369;-64
2023/11/05 07:33:48;;;;;;;3.75;0.88;;;;;;;11.38;95.16;96718.59;7390992;19;20383;-63
2023/11/05 07:36:15;;;;;;;5.32;1.00;;;;;;;11.41;94.46;96711.94;7397223;19;20372;-63
2023/11/05 07:38:42;;;;;;;3.15;1.15;;;;;;;11.48;94.49;96723.03;7400657;19;20432;-61
2023/11/05 07:41:09;;;;;;;2.08;0.75;;;;;;;11.54;94.43;96710.50;7399352;19;20384;-63
2023/11/05 07:43:39;;;;;;;4.18;0.93;;;;;;;11.58;93.89;96716.81;7396485;19;20316;-62
2023/11/05 07:46:09;;;;;;;3.22;0.70;;;;;;;11.63;93.78;96722.09;7400438;19;20398;-62
2023/11/05 07:48:36;;;;;;;4.43;1.40;;;;;;;11.66;93.35;96724.19;7398223;19;20875;-63
2023/11/05 07:51:02;;;;;;;16.55;11.63;;;;;;;11.71;93.50;96724.16;7398606;19;20392;-62
2023/11/05 07:53:29;;;;;;;6.18;1.10;;;;;;;11.74;93.03;96725.47;7397444;19;20356;-62
2023/11/05 07:55:56;;;;;;;3.95;0.70;;;;;;;11.77;92.66;96724.88;7398348;19;20383;-63
2023/11/05 07:58:23;;;;;;;2.67;0.80;;;;;;;11.83;92.54;96726.44;7400603;19;20344;-62
2023/11/05 08:00:51;;;;;;;2.55;0.80;;;;;;;11.87;92.32;96721.34;7399614;19;20351;-61
2023/11/05 08:03:18;;;;;;;5.10;0.80;;;;;;;11.93;92.14;96722.94;7396579;19;20365;-62
2023/11/05 08:05:45;;;;;;;4.23;0.70;;;;;;;11.97;91.88;96718.63;7399945;19;20397;-63
2023/11/05 08:08:12;;;;;;;6.43;0.93;;;;;;;11.99;91.47;96721.81;7397890;19;20344;-63
2023/11/05 08:10:39;;;;;;;3.40;1.00;;;;;;;12.00;91.30;96726.03;7400167;19;20441;-62
2023/11/05 08:13:05;;;;;;;2.92;0.70;;;;;;;12.00;91.17;96718.06;7398711;19;20390;-63
2023/11/05 08:15:32;;;;;;;3.63;0.77;;;;;;;12.00;90.79;96712.75;7399045;19;20931;-63
2023/11/05 08:17:59;;;;;;;2.28;0.80;;;;;;;12.06;90.87;96716.16;7397919;19;20774;-62
2023/11/05 08:20:26;;;;;;;3.97;0.80;;;;;;;12.07;90.65;96721.19;7396299;19;20377;-62
2023/11/05 08:22:53;;;;;;;1.38;0.52;;;;;;;12.08;90.42;96722.75;7396089;19;20382;-63
2023/11/05 08:25:22;;;;;;;2.77;0.70;;;;;;;12.10;90.57;96720.63;7394126;19;20506;-62
2023/11/05 08:27:51;;;;;;;3.60;0.88;;;;;;;12.17;90.46;96725.59;7397549;19;20393;-62
2023/11/05 08:30:22;;;;;;;1.70;0.77;;;;;;;12.22;90.43;96726.34;7398444;19;20381;-62
2023/11/05 08:32:51;;;;;;;2.00;0.80;;;;;;;12.22;89.85;96729.00;7395553;19;20407;-62
2023/11/05 08:35:21;;;;;;;3.17;0.70;;;;;;;12.26;89.88;96736.38;7394696;19;20356;-62
2023/11/05 08:37:49;;;;;;;3.07;1.07;;;;;;;12.30;89.66;96732.09;7397975;19;20449;-62
2023/11/05 08:40:16;;;;;;;3.60;0.80;;;;;;;12.33;89.26;96736.84;7397884;19;20360;-62
2023/11/05 08:42:44;;;;;;;2.35;0.77;;;;;;;12.33;89.21;96736.84;7394617;19;20366;-63
2023/11/05 08:45:14;;;;;;;3.58;0.63;;;;;;;12.32;88.80;96740.56;7395961;19;20728;-63
2023/11/05 08:47:41;;;;;;;3.70;0.90;;;;;;;12.30;88.68;96746.16;7396230;19;20437;-63
2023/11/05 08:50:08;;;;;;;2.15;0.60;;;;;;;12.37;89.03;96738.66;7396903;19;20372;-63
2023/11/05 08:52:35;;;;;;;1.98;0.60;;;;;;;12.42;88.88;96741.25;7397346;19;20508;-63
2023/11/05 08:55:03;;;;;;;4.75;1.10;;;;;;;12.41;88.76;96744.16;7395506;19;20336;-63
2023/11/05 08:57:30;;;;;;;2.85;0.80;;;;;;;12.37;88.04;96751.16;7396277;19;21052;-62
2023/11/05 08:59:57;;;;;;;2.78;0.70;;;;;;;12.41;87.92;96746.81;7395721;19;20401;-63
2023/11/05 09:02:24;;;;;;;2.58;0.60;;;;;;;12.43;87.90;96752.66;7393239;19;20360;-63
2023/11/05 09:04:51;;;;;;;2.75;0.77;;;;;;;12.45;87.58;96755.81;7392279;19;20709;-63
2023/11/05 09:07:18;;;;;;;2.08;0.60;;;;;;;12.48;87.36;96765.91;7395004;19;20362;-63
2023/11/05 09:09:45;;;;;;;3.13;0.80;;;;;;;12.52;87.14;96760.81;7395449;19;20340;-62
2023/11/05 09:12:13;;;;;;;2.00;0.50;;;;;;;12.54;86.80;96762.13;7394717;19;20385;-63
2023/11/05 09:14:40;;;;;;;2.47;0.63;;;;;;;12.60;86.70;96763.63;7397491;19;20340;-63
2023/11/05 09:17:08;;;;;;;2.03;0.55;;;;;;;12.72;86.71;96767.75;7390987;19;20376;-63
2023/11/05 09:19:35;;;;;;;2.80;0.50;;;;;;;12.81;85.91;96768.69;7390380;19;20870;-63
2023/11/05 09:22:02;;;;;;;1.08;0.40;;;;;;;12.87;85.43;96764.09;7391787;19;20374;-64
2023/11/05 09:24:29;;;;;;;2.10;0.40;;;;;;;13.00;85.30;96771.38;7394841;19;20376;-62
2023/11/05 09:26:56;;;;;;;2.45;0.80;;;;;;;13.10;84.53;96775.78;7395131;19;20348;-64
2023/11/05 09:29:23;;;;;;;5.50;0.80;;;;;;;13.17;84.25;96768.22;7393466;19;20374;-64
2023/11/05 09:31:50;;;;;;;1.45;0.43;;;;;;;13.24;84.06;96771.31;7387950;19;20392;-63
2023/11/05 09:34:17;;;;;;;1.55;0.50;;;;;;;13.28;83.28;96774.97;7392243;19;20413;-64
2023/11/05 09:36:44;;;;;;;1.70;0.65;;;;;;;13.26;82.32;96774.47;7392035;19;20381;-64
2023/11/05 09:39:12;;;;;;;2.88;0.80;;;;;;;13.31;82.44;96781.63;7394006;19;20385;-63
2023/11/05 09:41:39;;;;;;;2.13;0.40;;;;;;;13.36;82.78;96777.00;7396266;19;20380;-63
2023/11/05 09:44:06;;;;;;;1.70;0.60;;;;;;;13.30;81.77;96790.69;7391951;19;20376;-63
2023/11/05 09:46:34;;;;;;;1.80;0.50;;;;;;;13.28;82.09;96796.25;7393935;19;20403;-64
2023/11/05 09:49:01;;;;;;;1.55;0.47;;;;;;;13.18;81.91;96793.75;7393610;19;20749;-63
2023/11/05 09:51:28;;;;;;;1.50;0.50;;;;;;;13.11;81.87;96803.94;7392272;19;20373;-63
2023/11/05 09:53:55;;;;;;;1.50;0.52;;;;;;;13.13;82.44;96804.44;7395115;19;20360;-61
2023/11/05 09:56:25;;;;;;;1.33;0.55;;;;;;;13.11;82.88;96804.75;7394744;19;20390;-61
2023/11/05 09:58:52;;;;;;;1.92;0.50;;;;;;;13.01;82.00;96812.88;7390486;19;20348;-61
2023/11/05 10:01:19;;;;;;;1.60;0.38;;;;;;;13.05;82.48;96804.03;7393234;19;20336;-62
2023/11/05 10:03:46;;;;;;;0.95;0.47;;;;;;;13.05;82.04;96814.66;7391351;19;20895;-62
2023/11/05 10:06:19;;;;;;;2.50;0.52;;;;;;;13.06;82.29;96810.91;7393197;19;20688;-61
2023/11/05 10:08:45;;;;;;;1.67;0.60;;;;;;;13.17;82.73;96808.13;7393405;19;20363;-62
2023/11/05 10:11:13;;;;;;;1.95;0.50;;;;;;;13.13;81.71;96813.22;7395002;19;20873;-62
2023/11/05 10:13:40;;;;;;;1.65;0.50;;;;;;;13.22;82.11;96814.19;7395406;19;20410;-62
2023/11/05 10:16:09;;;;;;;2.78;0.55;;;;;;;13.23;81.65;96820.28;7380910;19;20843;-62
2023/11/05 10:18:36;;;;;;;2.08;0.40;;;;;;;13.18;81.49;96817.72;7386342;19;20381;-62
2023/11/05 10:21:04;;;;;;;3.08;1.10;;;;;;;13.19;81.86;96821.94;7392683;19;20360;-63
2023/11/05 10:23:49;;;;;;;2.47;0.60;;;;;;;13.19;81.96;96821.94;7391015;19;20377;-63
2023/11/05 10:26:29;;;;;;;2.03;0.80;;;;;;;13.27;82.27;96826.63;7393477;19;20337;-62
2023/11/05 10:28:56;;;;;;;1.85;0.50;;;;;;;13.29;82.25;96827.16;7390178;19;20376;-62
2023/11/05 10:31:24;;;;;;;2.05;0.50;;;;;;;13.39;82.16;96832.34;7393016;19;20386;-62
2023/11/05 10:33:52;;;;;;;1.77;0.55;;;;;;;13.44;81.46;96834.91;7391022;19;20707;-62
2023/11/05 10:36:25;;;;;;;2.83;0.70;;;;;;;13.60;81.23;96842.69;7390125;19;20365;-60
2023/11/05 10:38:52;;;;;;;2.00;0.70;;;;;;;13.75;80.99;96845.13;7391629;19;20358;-62
2023/11/05 10:41:20;;;;;;;1.57;0.50;;;;;;;13.91;80.48;96847.56;7394248;19;20874;-62
2023/11/05 10:43:50;;;;;;;1.80;0.50;;;;;;;13.97;79.49;96843.72;7389859;19;20424;-62
2023/11/05 10:46:21;;;;;;;1.85;0.40;;;;;;;14.02;78.86;96848.97;7388097;19;20391;-61
2023/11/05 10:48:53;;;;;;;1.30;0.30;;;;;;;14.02;77.64;96855.06;7392512;19;20352;-62
2023/11/05 10:51:23;;;;;;;1.17;0.40;;;;;;;14.22;77.94;96859.28;7394103;19;20751;-61
2023/11/05 10:53:52;;;;;;;0.73;0.40;;;;;;;14.30;76.89;96857.03;7390973;19;20365;-62
2023/11/05 10:56:29;;;;;;;1.98;0.28;;;;;;;14.36;76.18;96863.84;7390645;19;20365;-62
2023/11/05 10:58:56;;;;;;;0.73;0.30;;;;;;;14.33;75.96;96869.78;7386707;19;20358;-63
2023/11/05 11:01:28;;;;;;;2.40;0.30;;;;;;;14.33;76.65;96867.13;7385651;19;20440;-62
2023/11/05 11:04:04;;;;;;;1.52;0.30;;;;;;;14.26;76.45;96870.97;7385851;19;20453;-63
2023/11/05 11:06:32;;;;;;;1.00;0.30;;;;;;;14.23;76.22;96881.41;7385550;19;20375;-63
2023/11/05 11:09:08;;;;;;;1.65;0.43;;;;;;;14.29;77.36;96882.91;7389784;19;20716;-63
2023/11/05 11:11:37;;;;;;;1.20;0.32;;;;;;;14.28;77.39;96884.78;7391845;19;20376;-63
2023/11/05 11:14:03;;;;;;;1.40;0.35;;;;;;;14.22;77.60;96880.63;7392746;19;20348;-63
2023/11/05 11:16:32;;;;;;;1.40;0.37;;;;;;;14.22;77.89;96885.94;7391679;19;20851;-63
2023/11/05 11:19:06;;;;;;;0.80;0.30;;;;;;;14.18;78.03;96884.16;7392102;19;20359;-63
2023/11/05 11:21:37;;;;;;;2.65;0.43;;;;;;;14.18;77.95;96892.94;7392661;19;20360;-61
2023/11/05 11:24:33;;;;;;;0.60;0.30;;;;;;;14.25;78.12;96890.69;7389853;19;20885;-63
2023/11/05 11:27:04;;;;;;;0.57;0.30;;;;;;;14.39;77.80;96900.63;7393215;19;20374;-63
2023/11/05 11:29:33;;;;;;;0.80;0.20;;;;;;;14.54;76.58;96905.69;7392442;19;20337;-63
2023/11/05 11:32:02;;;;;;;0.95;0.40;;;;;;;14.65;76.16;96901.78;7387337;19;20880;-62
2023/11/05 11:34:30;;;;;;;0.80;0.25;;;;;;;14.91;75.90;96909.31;7392273;19;20368;-62
2023/11/05 11:36:59;;;;;;;0.45;0.20;;;;;;;15.02;73.88;96913.34;7390556;19;20368;-62
2023/11/05 11:39:27;;;;;;;2.57;0.40;;;;;;;15.02;73.32;96912.56;7391117;19;20354;-63